Time;durP1;ratioP1;P1;durP2;ratioP2;P2;SDS_P1;SDS_P2;PMS_P1;PMS_P2;Temp;Humidity;BMP_temperature;BMP_pressure;BME280_temperature;BME280_humidity;BME280_pressure;Samples;Min_cycle;Max_cycle;Signal;HPM_P1;HPM_P2
2021/07/12 00:00:26;;;;;;;2.33;0.60;;;;;;;;;;5152392;27;20385;-59
2021/07/12 00:02:52;;;;;;;2.35;0.60;;;;;;;;;;5137351;27;20019;-58
2021/07/12 00:05:18;;;;;;;1.17;0.77;;;;;;;;;;5148748;27;20042;-58
2021/07/12 00:07:44;;;;;;;2.38;1.02;;;;;;;;;;5143574;27;20333;-58
2021/07/12 00:10:10;;;;;;;1.92;0.80;;;;;;;;;;5153349;27;20051;-58
2021/07/12 00:12:36;;;;;;;2.50;1.13;;;;;;;;;;5155965;27;20030;-58
2021/07/12 00:15:03;;;;;;;2.42;0.85;;;;;;;;;;5154332;27;20026;-59
2021/07/12 00:17:28;;;;;;;2.47;1.05;;;;;;;;;;5145032;27;20043;-58
2021/07/12 00:19:53;;;;;;;3.85;0.75;;;;;;;;;;5153292;27;20050;-58
2021/07/12 00:22:18;;;;;;;2.75;0.73;;;;;;;;;;5137075;27;20045;-58
2021/07/12 00:24:43;;;;;;;3.95;0.70;;;;;;;;;;5155751;27;20139;-58
2021/07/12 00:27:09;;;;;;;2.55;0.90;;;;;;;;;;5148834;27;20151;-59
2021/07/12 00:29:34;;;;;;;1.92;0.90;;;;;;;;;;5148350;27;20081;-59
2021/07/12 00:31:59;;;;;;;1.80;0.95;;;;;;;;;;5155595;27;20098;-58
2021/07/12 00:34:24;;;;;;;2.72;1.00;;;;;;;;;;5155292;27;20029;-59
2021/07/12 00:36:49;;;;;;;2.13;1.00;;;;;;;;;;5152034;27;20050;-58
2021/07/12 00:39:15;;;;;;;1.75;1.10;;;;;;;;;;5137386;27;20027;-59
2021/07/12 00:41:40;;;;;;;2.25;0.90;;;;;;;;;;5144390;27;20022;-59
2021/07/12 00:44:05;;;;;;;1.65;1.10;;;;;;;;;;5155507;27;20027;-59
2021/07/12 00:46:31;;;;;;;3.28;0.85;;;;;;;;;;5138690;27;20023;-58
2021/07/12 00:48:56;;;;;;;4.88;0.77;;;;;;;;;;5145191;27;20015;-59
2021/07/12 00:51:22;;;;;;;1.25;0.60;;;;;;;;;;5140845;27;20465;-59
2021/07/12 00:53:48;;;;;;;0.82;0.55;;;;;;;;;;5136058;27;20378;-59
2021/07/12 00:56:13;;;;;;;1.50;0.60;;;;;;;;;;5143443;27;20011;-59
2021/07/12 00:58:39;;;;;;;2.58;0.70;;;;;;;;;;5151240;27;20067;-59
2021/07/12 01:01:05;;;;;;;1.52;0.52;;;;;;;;;;5153518;27;20021;-58
2021/07/12 01:03:30;;;;;;;1.20;0.50;;;;;;;;;;5154942;27;20063;-58
2021/07/12 01:05:56;;;;;;;2.08;0.70;;;;;;;;;;5130403;27;20039;-59
2021/07/12 01:08:21;;;;;;;0.70;0.52;;;;;;;;;;5135042;27;20477;-59
2021/07/12 01:10:55;;;;;;;1.63;0.57;;;;;;;;;;5149387;27;20057;-58
2021/07/12 01:13:27;;;;;;;1.30;0.43;;;;;;;;;;5154437;27;20065;-59
2021/07/12 01:16:08;;;;;;;0.50;0.45;;;;;;;;;;5151108;27;20021;-59
2021/07/12 01:18:38;;;;;;;0.90;0.40;;;;;;;;;;5131145;27;20020;-59
2021/07/12 01:21:24;;;;;;;1.67;0.55;;;;;;;;;;5145594;27;20022;-59
2021/07/12 01:24:01;;;;;;;2.05;0.80;;;;;;;;;;5152177;27;20470;-58
2021/07/12 01:26:36;;;;;;;1.85;0.60;;;;;;;;;;5138213;27;20026;-59
2021/07/12 01:29:06;;;;;;;1.88;0.80;;;;;;;;;;5141488;27;20027;-63
2021/07/12 01:31:44;;;;;;;1.15;0.63;;;;;;;;;;5148579;27;20022;-59
2021/07/12 01:34:29;;;;;;;1.35;0.60;;;;;;;;;;5151440;27;20075;-59
2021/07/12 01:37:18;;;;;;;0.82;0.60;;;;;;;;;;5146343;27;20033;-59
2021/07/12 01:40:03;;;;;;;0.88;0.88;;;;;;;;;;5130118;27;20034;-59
2021/07/12 01:42:35;;;;;;;2.45;0.70;;;;;;;;;;5150102;27;20031;-58
2021/07/12 01:45:04;;;;;;;3.33;0.80;;;;;;;;;;5154202;27;20526;-59
2021/07/12 01:47:41;;;;;;;2.95;0.82;;;;;;;;;;5153099;27;20023;-59
2021/07/12 01:50:09;;;;;;;2.08;0.60;;;;;;;;;;5133922;27;20030;-59
2021/07/12 01:52:41;;;;;;;2.08;0.60;;;;;;;;;;5143992;27;20015;-59
2021/07/12 01:55:10;;;;;;;2.45;0.80;;;;;;;;;;5133193;27;20027;-59
2021/07/12 01:57:47;;;;;;;1.33;0.50;;;;;;;;;;5129934;27;20034;-59
2021/07/12 02:00:12;;;;;;;2.95;0.50;;;;;;;;;;5133274;27;20022;-59
2021/07/12 02:02:39;;;;;;;0.82;0.68;;;;;;;;;;5152388;27;20014;-58
2021/07/12 02:05:11;;;;;;;2.35;1.05;;;;;;;;;;5152200;27;20145;-59
2021/07/12 02:07:37;;;;;;;1.38;0.88;;;;;;;;;;5150679;27;20097;-59
2021/07/12 02:10:03;;;;;;;2.45;0.70;;;;;;;;;;5144245;27;20057;-58
2021/07/12 02:12:30;;;;;;;0.98;0.85;;;;;;;;;;5146675;27;20478;-59
2021/07/12 02:14:55;;;;;;;2.22;0.63;;;;;;;;;;5145619;27;20484;-60
2021/07/12 02:17:21;;;;;;;4.63;0.93;;;;;;;;;;5148648;27;20022;-60
2021/07/12 02:19:47;;;;;;;1.95;0.75;;;;;;;;;;5151981;27;20026;-60
2021/07/12 02:22:12;;;;;;;3.97;0.70;;;;;;;;;;5152472;27;20022;-59
2021/07/12 02:24:38;;;;;;;2.38;0.82;;;;;;;;;;5152912;27;20074;-59
2021/07/12 02:27:04;;;;;;;1.95;1.05;;;;;;;;;;5150724;27;20019;-59
2021/07/12 02:29:30;;;;;;;3.00;1.73;;;;;;;;;;5153472;27;20011;-60
2021/07/12 02:31:56;;;;;;;1.77;1.48;;;;;;;;;;5133021;27;20247;-60
2021/07/12 02:34:22;;;;;;;5.68;1.50;;;;;;;;;;5121119;27;20381;-59
2021/07/12 02:36:48;;;;;;;1.98;1.50;;;;;;;;;;5150206;27;20018;-59
2021/07/12 02:39:13;;;;;;;3.13;1.30;;;;;;;;;;5157371;27;20474;-59
2021/07/12 02:41:39;;;;;;;2.08;1.13;;;;;;;;;;5156687;27;20429;-59
2021/07/12 02:44:05;;;;;;;3.60;1.30;;;;;;;;;;5141935;27;20019;-60
2021/07/12 02:46:31;;;;;;;3.10;1.10;;;;;;;;;;5134235;27;20035;-60
2021/07/12 02:48:58;;;;;;;3.83;1.35;;;;;;;;;;5125250;27;20057;-60
2021/07/12 02:51:43;;;;;;;1.73;1.55;;;;;;;;;;5136932;27;20034;-59
2021/07/12 02:54:11;;;;;;;1.65;1.48;;;;;;;;;;5152125;27;20033;-60
2021/07/12 02:56:36;;;;;;;3.45;1.73;;;;;;;;;;5132733;27;20049;-60
2021/07/12 02:59:01;;;;;;;2.70;1.45;;;;;;;;;;5143707;27;20054;-60
2021/07/12 03:01:26;;;;;;;3.72;1.95;;;;;;;;;;5145479;27;20027;-60
2021/07/12 03:03:54;;;;;;;2.20;1.40;;;;;;;;;;5141925;27;20621;-59
2021/07/12 03:06:19;;;;;;;2.80;1.27;;;;;;;;;;5133829;27;20039;-60
2021/07/12 03:09:05;;;;;;;2.10;1.00;;;;;;;;;;5141282;27;20025;-60
2021/07/12 03:11:33;;;;;;;2.03;1.27;;;;;;;;;;5156606;27;20031;-60
2021/07/12 03:14:07;;;;;;;2.50;1.50;;;;;;;;;;5151465;27;20014;-60
2021/07/12 03:16:33;;;;;;;2.65;1.35;;;;;;;;;;5153737;27;20015;-60
2021/07/12 03:19:00;;;;;;;1.20;1.00;;;;;;;;;;5130153;27;20083;-60
2021/07/12 03:21:26;;;;;;;3.22;1.48;;;;;;;;;;5157255;27;20018;-61
2021/07/12 03:23:53;;;;;;;2.25;1.63;;;;;;;;;;5143220;27;20529;-60
2021/07/12 03:26:19;;;;;;;1.80;1.35;;;;;;;;;;5152356;27;20049;-58
2021/07/12 03:28:45;;;;;;;2.50;1.10;;;;;;;;;;5151024;27;20058;-58
2021/07/12 03:31:11;;;;;;;2.72;1.30;;;;;;;;;;5156914;27;20057;-58
2021/07/12 03:33:37;;;;;;;2.95;1.88;;;;;;;;;;5150577;27;20011;-58
2021/07/12 03:36:03;;;;;;;2.08;1.80;;;;;;;;;;5154239;27;20050;-58
2021/07/12 03:38:28;;;;;;;6.15;2.63;;;;;;;;;;5154567;27;20487;-58
2021/07/12 03:40:54;;;;;;;2.95;1.85;;;;;;;;;;5155970;27;20368;-60
2021/07/12 03:43:20;;;;;;;4.20;2.28;;;;;;;;;;5142018;27;20548;-58
2021/07/12 03:46:06;;;;;;;4.63;2.38;;;;;;;;;;5152352;27;20040;-58
2021/07/12 03:48:31;;;;;;;;;;;;;;;;;;5155706;27;20089;-58
2021/07/12 03:50:56;;;;;;;3.08;2.88;;;;;;;;;;5155196;27;19943;-58
2021/07/12 03:53:21;;;;;;;3.97;2.90;;;;;;;;;;5151631;27;20055;-58
2021/07/12 03:55:46;;;;;;;5.28;3.47;;;;;;;;;;5150081;27;20130;-58
2021/07/12 03:58:11;;;;;;;4.57;3.10;;;;;;;;;;5138363;27;20407;-58
2021/07/12 04:00:37;;;;;;;4.55;3.00;;;;;;;;;;5155956;27;20015;-58
2021/07/12 04:03:02;;;;;;;3.40;2.90;;;;;;;;;;5153626;27;20033;-58
2021/07/12 04:05:28;;;;;;;3.80;2.38;;;;;;;;;;5144089;27;20482;-59
2021/07/12 04:07:53;;;;;;;4.53;2.38;;;;;;;;;;5153163;27;20101;-59
2021/07/12 04:10:19;;;;;;;3.97;2.50;;;;;;;;;;5137071;27;20027;-58
2021/07/12 04:12:45;;;;;;;4.45;2.42;;;;;;;;;;5134239;27;20015;-60
2021/07/12 04:15:12;;;;;;;7.20;2.75;;;;;;;;;;5154756;27;20102;-59
2021/07/12 04:17:37;;;;;;;4.90;2.60;;;;;;;;;;5132520;27;20532;-59
2021/07/12 04:20:04;;;;;;;2.90;2.33;;;;;;;;;;5135334;27;20023;-59
2021/07/12 04:22:29;;;;;;;3.22;2.90;;;;;;;;;;5146780;27;20018;-58
2021/07/12 04:24:54;;;;;;;4.45;2.70;;;;;;;;;;5148235;27;20102;-59
2021/07/12 04:27:19;;;;;;;4.22;2.58;;;;;;;;;;5152584;27;20521;-60
2021/07/12 04:29:45;;;;;;;3.83;2.42;;;;;;;;;;5140162;27;20045;-59
2021/07/12 04:32:10;;;;;;;4.53;3.17;;;;;;;;;;5145528;27;20018;-59
2021/07/12 04:34:35;;;;;;;5.20;3.00;;;;;;;;;;5155878;27;20474;-58
2021/07/12 04:37:01;;;;;;;4.13;2.88;;;;;;;;;;5136622;27;20063;-59
2021/07/12 04:39:26;;;;;;;2.42;2.17;;;;;;;;;;5146807;27;20046;-59
2021/07/12 04:41:51;;;;;;;3.65;2.28;;;;;;;;;;5142824;27;20015;-59
2021/07/12 04:44:17;;;;;;;2.60;1.90;;;;;;;;;;5137836;27;20016;-59
2021/07/12 04:46:42;;;;;;;1.77;1.67;;;;;;;;;;5139355;27;20398;-59
2021/07/12 04:49:07;;;;;;;3.55;1.75;;;;;;;;;;5147218;27;20054;-59
2021/07/12 04:51:32;;;;;;;1.92;1.67;;;;;;;;;;5143497;27;20430;-60
2021/07/12 04:53:58;;;;;;;1.83;1.60;;;;;;;;;;5155841;27;20419;-60
2021/07/12 04:56:23;;;;;;;3.22;1.40;;;;;;;;;;5135145;27;20347;-59
2021/07/12 04:58:49;;;;;;;2.30;1.50;;;;;;;;;;5154292;27;20042;-59
2021/07/12 05:01:18;;;;;;;2.40;1.55;;;;;;;;;;5153560;27;20493;-59
2021/07/12 05:03:43;;;;;;;5.30;2.33;;;;;;;;;;5154959;27;20007;-58
2021/07/12 05:06:08;;;;;;;2.38;1.45;;;;;;;;;;5123326;27;20039;-59
2021/07/12 05:08:33;;;;;;;4.97;1.52;;;;;;;;;;5113801;28;20497;-59
2021/07/12 05:10:59;;;;;;;1.83;1.50;;;;;;;;;;5120633;27;20457;-61
2021/07/12 05:13:25;;;;;;;5.22;1.60;;;;;;;;;;5116108;27;20023;-60
2021/07/12 05:15:50;;;;;;;2.45;1.30;;;;;;;;;;5127897;27;20019;-60
2021/07/12 05:18:15;;;;;;;3.85;1.45;;;;;;;;;;5121389;27;20394;-59
2021/07/12 05:20:41;;;;;;;1.55;1.30;;;;;;;;;;5118478;27;20383;-59
2021/07/12 05:23:06;;;;;;;2.33;1.83;;;;;;;;;;5121492;27;20023;-59
2021/07/12 05:25:31;;;;;;;1.67;1.30;;;;;;;;;;5132878;27;20382;-60
2021/07/12 05:27:57;;;;;;;3.20;1.85;;;;;;;;;;5130875;27;20030;-59
2021/07/12 05:30:22;;;;;;;2.72;2.08;;;;;;;;;;5131464;27;20026;-59
2021/07/12 05:32:48;;;;;;;4.70;3.15;;;;;;;;;;5132643;27;20524;-59
2021/07/12 05:35:13;;;;;;;5.13;2.88;;;;;;;;;;5128462;27;20115;-60
2021/07/12 05:37:38;;;;;;;4.38;2.15;;;;;;;;;;5129893;27;20019;-59
2021/07/12 05:40:04;;;;;;;2.75;2.08;;;;;;;;;;5133476;27;20021;-59
2021/07/12 05:42:30;;;;;;;3.38;2.22;;;;;;;;;;5132093;27;20107;-58
2021/07/12 05:44:55;;;;;;;2.33;2.10;;;;;;;;;;5124485;27;20098;-59
2021/07/12 05:47:20;;;;;;;4.85;4.30;;;;;;;;;;5129569;27;20019;-60
2021/07/12 05:49:46;;;;;;;5.65;3.20;;;;;;;;;;5132601;27;20023;-60
2021/07/12 05:52:11;;;;;;;3.63;2.70;;;;;;;;;;5133243;27;20030;-59
2021/07/12 05:54:36;;;;;;;2.40;2.20;;;;;;;;;;5133147;27;20019;-61
2021/07/12 05:57:02;;;;;;;12.32;4.95;;;;;;;;;;5118391;27;20024;-60
2021/07/12 05:59:27;;;;;;;2.88;2.58;;;;;;;;;;5113154;28;20016;-60
2021/07/12 06:01:52;;;;;;;6.38;2.70;;;;;;;;;;5117561;27;20355;-60
2021/07/12 06:04:17;;;;;;;2.90;2.60;;;;;;;;;;5133776;27;20019;-60
2021/07/12 06:06:43;;;;;;;3.20;2.22;;;;;;;;;;5132643;27;20027;-60
2021/07/12 06:09:08;;;;;;;5.22;3.08;;;;;;;;;;5135683;27;20030;-60
2021/07/12 06:11:33;;;;;;;1.98;1.73;;;;;;;;;;5133225;27;20050;-59
2021/07/12 06:13:58;;;;;;;2.67;1.42;;;;;;;;;;5140047;27;20015;-60
2021/07/12 06:16:25;;;;;;;2.22;1.58;;;;;;;;;;5151869;27;20496;-60
2021/07/12 06:18:50;;;;;;;2.35;1.60;;;;;;;;;;5152112;27;20465;-60
2021/07/12 06:21:15;;;;;;;4.65;1.42;;;;;;;;;;5153560;27;20060;-60
2021/07/12 06:23:40;;;;;;;3.13;1.80;;;;;;;;;;5152936;27;20540;-60
2021/07/12 06:26:06;;;;;;;1.42;1.25;;;;;;;;;;5140814;27;20015;-60
2021/07/12 06:28:31;;;;;;;1.73;1.60;;;;;;;;;;5115175;28;20068;-60
2021/07/12 06:30:56;;;;;;;3.97;1.25;;;;;;;;;;5140300;27;20035;-60
2021/07/12 06:33:21;;;;;;;1.80;1.45;;;;;;;;;;5149383;27;20030;-60
2021/07/12 06:35:47;;;;;;;2.55;1.30;;;;;;;;;;5147332;27;20030;-60
2021/07/12 06:38:12;;;;;;;2.33;1.30;;;;;;;;;;5133150;27;20492;-60
2021/07/12 06:40:37;;;;;;;1.00;1.00;;;;;;;;;;5127882;27;20446;-60
2021/07/12 06:43:02;;;;;;;1.05;0.95;;;;;;;;;;5130598;27;20095;-59
2021/07/12 06:45:28;;;;;;;1.40;0.82;;;;;;;;;;5149895;27;20018;-59
2021/07/12 06:47:53;;;;;;;1.13;1.13;;;;;;;;;;5151229;27;20023;-59
2021/07/12 06:50:18;;;;;;;1.10;1.10;;;;;;;;;;5145430;27;20057;-59
2021/07/12 06:52:44;;;;;;;1.60;1.02;;;;;;;;;;5138927;27;20015;-60
2021/07/12 06:55:09;;;;;;;1.05;0.90;;;;;;;;;;5132958;27;20416;-60
2021/07/12 06:57:34;;;;;;;3.08;1.17;;;;;;;;;;5125971;27;20474;-60
2021/07/12 06:59:59;;;;;;;1.40;1.10;;;;;;;;;;5140705;27;20094;-60
2021/07/12 07:02:25;;;;;;;1.30;0.90;;;;;;;;;;5152886;27;20099;-60
2021/07/12 07:04:50;;;;;;;1.48;1.25;;;;;;;;;;5149469;27;20047;-61
2021/07/12 07:07:15;;;;;;;1.08;0.98;;;;;;;;;;5150478;27;20023;-60
2021/07/12 07:09:41;;;;;;;2.25;1.15;;;;;;;;;;5133597;27;20714;-60
2021/07/12 07:12:06;;;;;;;1.75;1.02;;;;;;;;;;5150615;27;20018;-60
2021/07/12 07:14:31;;;;;;;1.65;0.90;;;;;;;;;;5149741;27;20067;-60
2021/07/12 07:16:56;;;;;;;2.30;1.10;;;;;;;;;;5123614;28;20015;-60
2021/07/12 07:19:22;;;;;;;1.15;0.60;;;;;;;;;;5141988;27;20026;-60
2021/07/12 07:21:51;;;;;;;1.67;0.83;;;;;;;;;;5148613;27;20086;-60
2021/07/12 07:24:17;;;;;;;0.90;0.77;;;;;;;;;;5134190;27;20780;-60
2021/07/12 07:26:42;;;;;;;2.08;0.82;;;;;;;;;;5149376;27;20006;-60
2021/07/12 07:29:08;;;;;;;0.88;0.80;;;;;;;;;;5138022;27;20114;-60
2021/07/12 07:31:34;;;;;;;1.45;0.90;;;;;;;;;;5152406;27;20096;-61
2021/07/12 07:33:59;;;;;;;1.85;0.98;;;;;;;;;;5138484;27;20015;-60
2021/07/12 07:36:24;;;;;;;0.88;0.60;;;;;;;;;;5152613;27;20018;-60
2021/07/12 07:38:49;;;;;;;1.90;0.60;;;;;;;;;;5138294;27;20033;-60
2021/07/12 07:41:14;;;;;;;1.63;0.65;;;;;;;;;;5148812;27;20025;-61
2021/07/12 07:43:40;;;;;;;2.25;0.70;;;;;;;;;;5150116;27;20014;-60
2021/07/12 07:46:05;;;;;;;1.50;0.68;;;;;;;;;;5151718;27;20007;-60
2021/07/12 07:48:30;;;;;;;0.77;0.77;;;;;;;;;;5153088;27;20014;-60
2021/07/12 07:50:56;;;;;;;1.63;0.68;;;;;;;;;;5149253;27;20045;-60
2021/07/12 07:53:21;;;;;;;3.95;0.93;;;;;;;;;;5149748;27;20079;-60
2021/07/12 07:55:46;;;;;;;1.42;0.70;;;;;;;;;;5147896;27;20023;-60
2021/07/12 07:58:11;;;;;;;4.43;0.95;;;;;;;;;;5150210;27;20113;-60
2021/07/12 08:00:37;;;;;;;1.37;0.83;;;;;;;;;;5151900;27;20015;-60
2021/07/12 08:03:02;;;;;;;2.17;0.68;;;;;;;;;;5136366;27;20642;-59
2021/07/12 08:05:28;;;;;;;0.82;0.60;;;;;;;;;;5125201;27;20046;-61
2021/07/12 08:07:53;;;;;;;0.50;0.50;;;;;;;;;;5151837;27;20404;-61
2021/07/12 08:10:19;;;;;;;0.40;0.40;;;;;;;;;;5152802;27;20033;-60
2021/07/12 08:12:45;;;;;;;0.50;0.40;;;;;;;;;;5151146;27;20046;-60
2021/07/12 08:15:12;;;;;;;0.50;0.50;;;;;;;;;;5148839;27;20015;-60
2021/07/12 08:17:37;;;;;;;0.47;0.45;;;;;;;;;;5147504;27;20027;-60
2021/07/12 08:20:04;;;;;;;0.70;0.47;;;;;;;;;;5125514;27;20499;-60
2021/07/12 08:22:29;;;;;;;0.90;0.68;;;;;;;;;;5152034;27;20015;-60
2021/07/12 08:24:54;;;;;;;0.30;0.30;;;;;;;;;;5155431;27;20023;-60
2021/07/12 08:27:19;;;;;;;1.75;0.40;;;;;;;;;;5133304;27;20133;-60
2021/07/12 08:29:45;;;;;;;1.02;0.50;;;;;;;;;;5124918;27;20386;-60
2021/07/12 08:32:10;;;;;;;0.40;0.35;;;;;;;;;;5150597;27;20094;-60
2021/07/12 08:34:41;;;;;;;1.02;0.50;;;;;;;;;;5154834;27;20426;-60
2021/07/12 08:37:07;;;;;;;0.40;0.40;;;;;;;;;;5152879;27;20023;-60
2021/07/12 08:39:33;;;;;;;0.50;0.40;;;;;;;;;;5125199;27;20118;-58
2021/07/12 08:41:59;;;;;;;1.05;0.60;;;;;;;;;;5135611;27;20011;-59
2021/07/12 08:44:25;;;;;;;0.82;0.38;;;;;;;;;;5145332;27;20022;-59
2021/07/12 08:46:50;;;;;;;2.17;0.43;;;;;;;;;;5152638;27;20019;-59
2021/07/12 08:49:15;;;;;;;0.40;0.40;;;;;;;;;;5154493;27;20622;-60
2021/07/12 08:51:41;;;;;;;0.90;0.40;;;;;;;;;;5155385;27;20041;-60
2021/07/12 08:54:07;;;;;;;0.60;0.40;;;;;;;;;;5138211;27;20030;-60
2021/07/12 08:56:32;;;;;;;0.40;0.40;;;;;;;;;;5137355;27;20661;-60
2021/07/12 08:58:57;;;;;;;0.50;0.35;;;;;;;;;;5154558;27;20015;-60
2021/07/12 09:01:23;;;;;;;0.30;0.30;;;;;;;;;;5152007;27;20552;-60
2021/07/12 09:03:51;;;;;;;0.80;0.40;;;;;;;;;;5155153;27;20015;-60
2021/07/12 09:06:22;;;;;;;0.60;0.35;;;;;;;;;;5151014;27;20070;-60
2021/07/12 09:08:47;;;;;;;0.90;0.40;;;;;;;;;;5154284;27;20070;-60
2021/07/12 09:11:16;;;;;;;0.50;0.50;;;;;;;;;;5153948;27;20022;-60
2021/07/12 09:13:52;;;;;;;0.65;0.32;;;;;;;;;;5154331;27;20057;-60
2021/07/12 09:16:30;;;;;;;0.68;0.40;;;;;;;;;;5138930;27;20172;-60
2021/07/12 09:19:02;;;;;;;0.40;0.30;;;;;;;;;;5141429;27;20026;-62
2021/07/12 09:21:32;;;;;;;1.05;0.30;;;;;;;;;;5145819;27;20368;-62
2021/07/12 09:24:14;;;;;;;0.70;0.40;;;;;;;;;;5134458;27;20024;-62
2021/07/12 09:26:41;;;;;;;0.47;0.30;;;;;;;;;;5130704;27;20018;-62
2021/07/12 09:29:06;;;;;;;1.00;0.30;;;;;;;;;;5147023;27;20462;-60
2021/07/12 09:31:33;;;;;;;0.52;0.30;;;;;;;;;;5131851;27;20128;-60
2021/07/12 09:34:01;;;;;;;0.40;0.30;;;;;;;;;;5149295;27;20105;-60
2021/07/12 09:36:30;;;;;;;0.40;0.38;;;;;;;;;;5147658;27;20026;-60
2021/07/12 09:38:55;;;;;;;1.27;0.60;;;;;;;;;;5146176;27;20469;-60
2021/07/12 09:41:27;;;;;;;0.60;0.27;;;;;;;;;;5145520;27;20033;-60
2021/07/12 09:43:59;;;;;;;0.75;0.30;;;;;;;;;;5133742;27;20268;-60
2021/07/12 09:46:30;;;;;;;0.85;0.28;;;;;;;;;;5130515;27;20011;-60
2021/07/12 09:49:08;;;;;;;0.85;0.25;;;;;;;;;;5142410;27;20034;-61
2021/07/12 09:51:34;;;;;;;1.90;0.32;;;;;;;;;;5134483;27;20026;-60
2021/07/12 09:54:19;;;;;;;1.00;0.20;;;;;;;;;;5152559;27;20022;-60
2021/07/12 09:56:44;;;;;;;0.30;0.28;;;;;;;;;;5147708;27;20021;-61
2021/07/12 09:59:14;;;;;;;0.30;0.30;;;;;;;;;;5150376;27;20031;-60
2021/07/12 10:01:39;;;;;;;0.35;0.35;;;;;;;;;;5152926;27;20046;-61
2021/07/12 10:04:05;;;;;;;0.55;0.30;;;;;;;;;;5151814;27;20122;-62
2021/07/12 10:06:32;;;;;;;0.73;0.20;;;;;;;;;;5132409;27;20035;-62
2021/07/12 10:08:58;;;;;;;0.80;0.20;;;;;;;;;;5132495;27;20015;-62
2021/07/12 10:11:23;;;;;;;0.25;0.20;;;;;;;;;;5135033;27;20023;-63
2021/07/12 10:13:48;;;;;;;1.45;0.30;;;;;;;;;;5152151;27;20064;-63
2021/07/12 10:16:13;;;;;;;0.93;0.25;;;;;;;;;;5148042;27;20023;-63
2021/07/12 10:18:39;;;;;;;0.98;0.22;;;;;;;;;;5148720;27;20401;-63
2021/07/12 10:21:05;;;;;;;0.20;0.20;;;;;;;;;;5123736;27;20025;-63
2021/07/12 10:23:30;;;;;;;0.70;0.22;;;;;;;;;;5146562;27;20044;-61
2021/07/12 10:25:56;;;;;;;0.35;0.20;;;;;;;;;;5151139;27;20098;-63
2021/07/12 10:28:36;;;;;;;0.20;0.20;;;;;;;;;;5152533;27;20026;-61
2021/07/12 10:31:15;;;;;;;0.70;0.20;;;;;;;;;;5149331;27;20276;-62
2021/07/12 10:33:40;;;;;;;0.30;0.10;;;;;;;;;;5140727;27;20103;-63
2021/07/12 10:36:07;;;;;;;0.40;0.20;;;;;;;;;;5120779;28;20659;-68
2021/07/12 10:38:37;;;;;;;0.95;0.20;;;;;;;;;;5116890;27;20023;-68
2021/07/12 10:41:14;;;;;;;0.30;0.20;;;;;;;;;;5144703;27;20050;-68
2021/07/12 10:43:42;;;;;;;0.40;0.20;;;;;;;;;;5147324;27;20454;-68
2021/07/12 10:46:07;;;;;;;0.20;0.20;;;;;;;;;;5145554;27;20019;-63
2021/07/12 10:48:40;;;;;;;0.20;0.20;;;;;;;;;;5151491;27;20015;-65
2021/07/12 10:51:15;;;;;;;0.93;0.22;;;;;;;;;;5152910;27;20473;-72
2021/07/12 10:53:40;;;;;;;1.75;0.50;;;;;;;;;;5133287;27;20071;-70
2021/07/12 10:56:08;;;;;;;0.47;0.20;;;;;;;;;;5149707;27;20023;-71
2021/07/12 10:58:35;;;;;;;0.30;0.20;;;;;;;;;;5154711;27;20058;-71
2021/07/12 11:01:02;;;;;;;0.50;0.20;;;;;;;;;;5144308;27;20011;-72
2021/07/12 11:03:37;;;;;;;1.45;0.20;;;;;;;;;;5137425;27;20026;-73
2021/07/12 11:06:03;;;;;;;0.30;0.20;;;;;;;;;;5131377;27;20054;-68
2021/07/12 11:08:47;;;;;;;0.98;0.20;;;;;;;;;;5123897;27;20508;-67
2021/07/12 11:11:32;;;;;;;0.98;0.13;;;;;;;;;;5129740;27;20094;-67
2021/07/12 11:14:07;;;;;;;0.17;0.10;;;;;;;;;;5133071;27;20015;-66
2021/07/12 11:16:42;;;;;;;0.95;0.10;;;;;;;;;;5134096;27;20034;-63
2021/07/12 11:19:24;;;;;;;0.28;0.10;;;;;;;;;;5134457;27;20027;-62
2021/07/12 11:21:50;;;;;;;0.95;0.10;;;;;;;;;;5135909;27;20011;-62
2021/07/12 11:24:20;;;;;;;0.50;0.20;;;;;;;;;;5132636;27;20031;-62
2021/07/12 11:26:48;;;;;;;0.22;0.10;;;;;;;;;;5127541;27;20007;-61
2021/07/12 11:29:14;;;;;;;0.90;0.20;;;;;;;;;;5133156;27;20041;-61
2021/07/12 11:31:39;;;;;;;1.03;0.20;;;;;;;;;;5134345;27;20027;-61
2021/07/12 11:34:16;;;;;;;0.60;0.17;;;;;;;;;;5133014;27;20765;-61
2021/07/12 11:36:58;;;;;;;0.82;0.20;;;;;;;;;;5127564;27;20424;-61
2021/07/12 11:39:25;;;;;;;0.10;0.10;;;;;;;;;;5132304;27;20023;-61
2021/07/12 11:41:51;;;;;;;0.70;0.10;;;;;;;;;;5133037;27;20028;-61
2021/07/12 11:44:17;;;;;;;0.10;0.10;;;;;;;;;;5135619;27;20019;-61
2021/07/12 11:46:43;;;;;;;0.17;0.17;;;;;;;;;;5118140;27;20387;-61
2021/07/12 11:49:09;;;;;;;0.47;0.20;;;;;;;;;;5127361;27;20031;-61
2021/07/12 11:51:35;;;;;;;1.88;0.20;;;;;;;;;;5134911;27;20019;-60
2021/07/12 11:54:01;;;;;;;1.50;0.10;;;;;;;;;;5131515;27;20362;-62
2021/07/12 11:56:26;;;;;;;1.23;0.20;;;;;;;;;;5130897;27;20466;-62
2021/07/12 11:58:55;;;;;;;0.95;0.20;;;;;;;;;;5127793;27;20094;-62
2021/07/12 12:01:20;;;;;;;0.22;0.20;;;;;;;;;;5133218;27;20520;-61
2021/07/12 12:03:46;;;;;;;0.20;0.10;;;;;;;;;;5132269;27;20023;-62
2021/07/12 12:06:11;;;;;;;0.77;0.20;;;;;;;;;;5144819;27;20051;-62
2021/07/12 12:08:36;;;;;;;0.50;0.20;;;;;;;;;;5135069;27;20011;-61
2021/07/12 12:13:00;;;;;;;0.30;0.20;;;;;;;;;;5146551;27;20387;-61
2021/07/12 12:15:36;;;;;;;0.20;0.20;;;;;;;;;;5121175;27;20023;-63
2021/07/12 12:18:11;;;;;;;0.50;0.20;;;;;;;;;;5103532;27;20058;-63
2021/07/12 12:20:38;;;;;;;0.20;0.20;;;;;;;;;;5126686;27;20470;-63
2021/07/12 12:23:23;;;;;;;1.90;0.30;;;;;;;;;;5124658;27;20057;-62
2021/07/12 12:25:48;;;;;;;;;;;;;;;;;;5119569;27;20019;-63
2021/07/12 12:28:44;;;;;;;0.38;0.20;;;;;;;;;;5104086;28;19908;-61
2021/07/12 12:31:12;;;;;;;0.30;0.20;;;;;;;;;;5102080;28;20435;-60
2021/07/12 12:33:37;;;;;;;0.40;0.20;;;;;;;;;;5120346;27;20023;-60
2021/07/12 12:36:04;;;;;;;1.13;0.23;;;;;;;;;;5117699;27;20030;-61
2021/07/12 12:38:30;;;;;;;0.20;0.20;;;;;;;;;;5119832;27;20012;-59
2021/07/12 12:53:54;;;;;;;0.90;0.20;;;;;;;;;;5120425;27;20422;-51
2021/07/12 12:56:20;;;;;;;0.28;0.20;;;;;;;;;;5106357;28;20032;-55
2021/07/12 12:58:45;;;;;;;0.30;0.20;;;;;;;;;;5103347;28;20073;-52
2021/07/12 13:01:10;;;;;;;0.30;0.20;;;;;;;;;;5105762;28;20371;-52
2021/07/12 13:03:35;;;;;;;0.20;0.20;;;;;;;;;;5097688;28;20463;-56
2021/07/12 13:06:02;;;;;;;0.20;0.20;;;;;;;;;;5103603;28;20054;-50
2021/07/12 13:08:29;;;;;;;0.20;0.20;;;;;;;;;;5107601;28;20020;-52
2021/07/12 13:11:01;;;;;;;0.40;0.20;;;;;;;;;;5108027;28;20023;-50
2021/07/12 13:13:27;;;;;;;1.27;0.40;;;;;;;;;;5107233;28;20115;-47
2021/07/12 13:15:53;;;;;;;2.55;0.20;;;;;;;;;;5104615;28;20023;-50
2021/07/12 13:18:18;;;;;;;0.30;0.20;;;;;;;;;;5103584;28;20016;-48
2021/07/12 13:20:44;;;;;;;0.40;0.20;;;;;;;;;;5099153;28;20285;-52
2021/07/12 13:23:09;;;;;;;1.48;0.20;;;;;;;;;;5099500;28;20281;-60
2021/07/12 13:25:38;;;;;;;0.83;0.20;;;;;;;;;;5096886;28;20021;-59
2021/07/12 13:28:04;;;;;;;0.55;0.20;;;;;;;;;;5098653;28;20277;-62
2021/07/12 13:30:31;;;;;;;0.35;0.20;;;;;;;;;;5097361;28;20011;-58
2021/07/12 13:32:56;;;;;;;0.50;0.10;;;;;;;;;;5096957;28;20111;-60
2021/07/12 13:35:26;;;;;;;0.40;0.20;;;;;;;;;;5094919;28;20707;-59
2021/07/12 13:37:52;;;;;;;0.35;0.20;;;;;;;;;;5098684;28;20023;-59
2021/07/12 13:40:18;;;;;;;0.50;0.25;;;;;;;;;;5107449;28;20028;-58
2021/07/12 13:42:43;;;;;;;0.93;0.20;;;;;;;;;;5105097;27;20466;-60
2021/07/12 13:45:09;;;;;;;1.38;0.20;;;;;;;;;;5105008;28;20036;-60
2021/07/12 13:47:35;;;;;;;0.35;0.13;;;;;;;;;;5110824;27;20043;-59
2021/07/12 13:50:00;;;;;;;0.30;0.20;;;;;;;;;;5105022;28;20517;-59
2021/07/12 13:52:25;;;;;;;0.43;0.17;;;;;;;;;;5107383;28;20040;-58
2021/07/12 13:54:51;;;;;;;0.17;0.10;;;;;;;;;;5089179;28;20036;-65
2021/07/12 13:57:16;;;;;;;0.20;0.20;;;;;;;;;;5090298;28;20034;-57
2021/07/12 13:59:43;;;;;;;1.38;0.20;;;;;;;;;;5093368;28;20055;-57
2021/07/12 14:02:09;;;;;;;0.77;0.30;;;;;;;;;;5092538;28;20097;-58
2021/07/12 14:04:35;;;;;;;0.20;0.20;;;;;;;;;;5092493;28;20031;-56
2021/07/12 14:07:00;;;;;;;0.20;0.20;;;;;;;;;;5088003;28;20208;-56
2021/07/12 14:09:26;;;;;;;1.10;0.30;;;;;;;;;;5097195;28;20547;-58
2021/07/12 14:11:51;;;;;;;0.50;0.20;;;;;;;;;;5090061;28;20481;-57
2021/07/12 14:14:16;;;;;;;0.57;0.20;;;;;;;;;;5092259;28;20488;-57
2021/07/12 14:16:42;;;;;;;0.23;0.20;;;;;;;;;;5087848;28;20012;-55
2021/07/12 14:19:07;;;;;;;0.82;0.20;;;;;;;;;;5092214;28;20285;-58
2021/07/12 14:21:32;;;;;;;0.50;0.20;;;;;;;;;;5095315;28;20490;-58
2021/07/12 14:23:57;;;;;;;0.93;0.30;;;;;;;;;;5092676;28;20387;-59
2021/07/12 14:26:24;;;;;;;0.98;0.20;;;;;;;;;;5095808;28;20264;-57
2021/07/12 14:28:51;;;;;;;1.48;0.20;;;;;;;;;;5087100;28;20012;-58
2021/07/12 14:31:17;;;;;;;0.45;0.20;;;;;;;;;;5090450;28;20020;-55
2021/07/12 14:33:43;;;;;;;2.17;0.60;;;;;;;;;;5089252;28;20398;-58
2021/07/12 14:36:08;;;;;;;0.85;0.20;;;;;;;;;;5092724;28;20031;-58
2021/07/12 14:38:33;;;;;;;0.43;0.20;;;;;;;;;;5092301;28;20019;-58
2021/07/12 14:40:59;;;;;;;1.63;0.50;;;;;;;;;;5095214;28;20043;-59
2021/07/12 14:43:24;;;;;;;0.85;0.30;;;;;;;;;;5091552;28;20026;-59
2021/07/12 14:45:49;;;;;;;0.40;0.20;;;;;;;;;;5084948;28;20052;-56
2021/07/12 14:48:15;;;;;;;0.20;0.20;;;;;;;;;;5093002;28;20270;-57
2021/07/12 14:50:40;;;;;;;0.30;0.20;;;;;;;;;;5095195;28;20016;-57
2021/07/12 14:53:07;;;;;;;0.50;0.30;;;;;;;;;;5091742;28;20144;-57
2021/07/12 14:55:32;;;;;;;0.30;0.28;;;;;;;;;;5083402;28;20024;-56
2021/07/12 14:57:58;;;;;;;0.20;0.20;;;;;;;;;;5092285;28;20028;-56